sensor_id;sensor_type;location;lat;lon;timestamp;pressure;altitude;pressure_sealevel;temperature;humidity
58775;BME280;44545;47.480;19.024;2023-05-02T03:13:33;100180.34;;;10.83;70.65
58775;BME280;44545;47.480;19.024;2023-05-02T03:16:38;100181.69;;;10.75;70.25
58775;BME280;44545;47.480;19.024;2023-05-02T03:19:41;100181.78;;;10.76;68.54
58775;BME280;44545;47.480;19.024;2023-05-02T03:22:44;100194.13;;;10.80;68.71
58775;BME280;44545;47.480;19.024;2023-05-02T03:25:46;100182.72;;;10.78;67.66
58775;BME280;44545;47.480;19.024;2023-05-02T03:28:49;100196.84;;;10.82;67.26
58775;BME280;44545;47.480;19.024;2023-05-02T03:31:52;100195.34;;;10.87;66.29
58775;BME280;44545;47.480;19.024;2023-05-02T03:34:55;100192.97;;;10.92;66.36
58775;BME280;44545;47.480;19.024;2023-05-02T03:38:00;100196.53;;;10.94;65.27
58775;BME280;44545;47.480;19.024;2023-05-02T03:41:02;100198.34;;;10.95;66.53
58775;BME280;44545;47.480;19.024;2023-05-02T03:44:05;100201.97;;;10.98;65.92
58775;BME280;44545;47.480;19.024;2023-05-02T03:47:07;100202.16;;;11.01;67.01
58775;BME280;44545;47.480;19.024;2023-05-02T03:50:10;100210.00;;;11.01;66.58
58775;BME280;44545;47.480;19.024;2023-05-02T03:53:13;100206.53;;;11.02;65.72
58775;BME280;44545;47.480;19.024;2023-05-02T03:56:18;100204.97;;;11.06;67.01
58775;BME280;44545;47.480;19.024;2023-05-02T03:59:21;100211.62;;;10.99;68.67
58775;BME280;44545;47.480;19.024;2023-05-02T04:02:24;100211.53;;;10.98;69.07
58775;BME280;44545;47.480;19.024;2023-05-02T04:05:27;100219.44;;;10.99;70.09
58775;BME280;44545;47.480;19.024;2023-05-02T04:08:30;100222.94;;;11.00;70.06
58775;BME280;44545;47.480;19.024;2023-05-02T04:11:33;100217.06;;;11.04;69.64
58775;BME280;44545;47.480;19.024;2023-05-02T04:14:36;100215.50;;;11.07;69.29
58775;BME280;44545;47.480;19.024;2023-05-02T04:17:38;100219.75;;;11.23;68.90
58775;BME280;44545;47.480;19.024;2023-05-02T04:20:42;100212.44;;;11.16;70.29
58775;BME280;44545;47.480;19.024;2023-05-02T04:23:47;100226.03;;;11.27;69.51
58775;BME280;44545;47.480;19.024;2023-05-02T04:26:49;100223.84;;;11.36;68.95
58775;BME280;44545;47.480;19.024;2023-05-02T04:29:52;100228.31;;;11.39;68.34
58775;BME280;44545;47.480;19.024;2023-05-02T04:32:55;100223.63;;;11.67;64.29
58775;BME280;44545;47.480;19.024;2023-05-02T04:35:59;100230.84;;;11.91;63.19
58775;BME280;44545;47.480;19.024;2023-05-02T04:39:03;100233.59;;;12.13;61.03
58775;BME280;44545;47.480;19.024;2023-05-02T04:42:09;100237.37;;;12.40;61.89
58775;BME280;44545;47.480;19.024;2023-05-02T04:45:11;100236.31;;;12.55;62.84
58775;BME280;44545;47.480;19.024;2023-05-02T04:48:16;100237.00;;;12.71;62.73
58775;BME280;44545;47.480;19.024;2023-05-02T04:51:18;100236.47;;;12.99;61.34
58775;BME280;44545;47.480;19.024;2023-05-02T04:54:22;100238.50;;;13.06;61.49
58775;BME280;44545;47.480;19.024;2023-05-02T04:57:24;100245.47;;;13.27;60.38
58775;BME280;44545;47.480;19.024;2023-05-02T05:00:27;100234.91;;;13.44;60.82
58775;BME280;44545;47.480;19.024;2023-05-02T05:03:29;100234.25;;;13.73;58.28
58775;BME280;44545;47.480;19.024;2023-05-02T05:06:32;100243.47;;;14.08;58.41
58775;BME280;44545;47.480;19.024;2023-05-02T05:09:35;100230.87;;;14.70;56.71
58775;BME280;44545;47.480;19.024;2023-05-02T05:12:37;100232.75;;;15.25;55.01
58775;BME280;44545;47.480;19.024;2023-05-02T05:15:39;100244.47;;;15.35;55.10
58775;BME280;44545;47.480;19.024;2023-05-02T05:18:42;100251.75;;;15.44;55.94
58775;BME280;44545;47.480;19.024;2023-05-02T05:21:45;100243.00;;;15.70;54.97
58775;BME280;44545;47.480;19.024;2023-05-02T05:24:53;100240.37;;;16.29;52.31
58775;BME280;44545;47.480;19.024;2023-05-02T05:27:56;100245.28;;;16.17;50.07
58775;BME280;44545;47.480;19.024;2023-05-02T05:31:06;100245.53;;;16.56;50.63
58775;BME280;44545;47.480;19.024;2023-05-02T05:34:09;100250.69;;;17.17;49.95
58775;BME280;44545;47.480;19.024;2023-05-02T05:37:11;100248.09;;;16.85;51.27
58775;BME280;44545;47.480;19.024;2023-05-02T05:40:14;100251.66;;;17.20;46.87
58775;BME280;44545;47.480;19.024;2023-05-02T05:43:18;100257.41;;;17.40;46.83
58775;BME280;44545;47.480;19.024;2023-05-02T05:46:20;100249.00;;;18.76;45.09
58775;BME280;44545;47.480;19.024;2023-05-02T05:49:23;100253.75;;;20.04;44.13
58775;BME280;44545;47.480;19.024;2023-05-02T05:52:25;100254.19;;;21.17;40.50
58775;BME280;44545;47.480;19.024;2023-05-02T05:55:28;100255.81;;;22.19;38.68
58775;BME280;44545;47.480;19.024;2023-05-02T05:58:31;100246.28;;;22.62;36.22
58775;BME280;44545;47.480;19.024;2023-05-02T06:01:33;100253.50;;;23.28;35.26
58775;BME280;44545;47.480;19.024;2023-05-02T06:04:37;100253.13;;;24.84;33.29
58775;BME280;44545;47.480;19.024;2023-05-02T06:07:40;100255.69;;;25.00;33.01
58775;BME280;44545;47.480;19.024;2023-05-02T06:10:42;100256.88;;;25.76;31.70
58775;BME280;44545;47.480;19.024;2023-05-02T06:13:47;100265.00;;;25.62;30.67
58775;BME280;44545;47.480;19.024;2023-05-02T06:16:49;100248.38;;;26.90;28.55
58775;BME280;44545;47.480;19.024;2023-05-02T06:19:52;100253.13;;;26.70;29.21
58775;BME280;44545;47.480;19.024;2023-05-02T06:22:55;100253.78;;;26.86;28.46
58775;BME280;44545;47.480;19.024;2023-05-02T06:25:59;100254.09;;;27.79;27.54
58775;BME280;44545;47.480;19.024;2023-05-02T06:29:02;100246.94;;;27.28;28.16
58775;BME280;44545;47.480;19.024;2023-05-02T06:32:04;100254.69;;;26.86;26.83
58775;BME280;44545;47.480;19.024;2023-05-02T06:35:09;100254.25;;;26.50;28.32
58775;BME280;44545;47.480;19.024;2023-05-02T06:38:11;100258.16;;;26.94;27.42
58775;BME280;44545;47.480;19.024;2023-05-02T06:41:14;100263.34;;;26.37;28.18
58775;BME280;44545;47.480;19.024;2023-05-02T06:44:19;100260.19;;;27.88;26.67
58775;BME280;44545;47.480;19.024;2023-05-02T06:47:21;100263.47;;;28.90;25.06
58775;BME280;44545;47.480;19.024;2023-05-02T06:50:25;100257.94;;;28.57;25.81
58775;BME280;44545;47.480;19.024;2023-05-02T06:53:28;100256.84;;;29.06;25.07
58775;BME280;44545;47.480;19.024;2023-05-02T06:56:34;100263.28;;;29.36;24.59
58775;BME280;44545;47.480;19.024;2023-05-02T06:59:36;100259.50;;;29.08;25.16
58775;BME280;44545;47.480;19.024;2023-05-02T07:02:38;100269.19;;;29.87;24.89
58775;BME280;44545;47.480;19.024;2023-05-02T07:05:42;100252.00;;;30.25;23.64
58775;BME280;44545;47.480;19.024;2023-05-02T07:08:44;100258.47;;;28.74;24.29
58775;BME280;44545;47.480;19.024;2023-05-02T07:11:46;100260.00;;;28.85;24.75
58775;BME280;44545;47.480;19.024;2023-05-02T07:14:48;100258.06;;;30.93;23.57
58775;BME280;44545;47.480;19.024;2023-05-02T07:17:51;100253.13;;;32.37;21.39
58775;BME280;44545;47.480;19.024;2023-05-02T07:20:53;100256.16;;;32.28;21.58
58775;BME280;44545;47.480;19.024;2023-05-02T07:23:56;100252.75;;;31.46;21.44
58775;BME280;44545;47.480;19.024;2023-05-02T07:26:58;100251.06;;;31.95;21.16
58775;BME280;44545;47.480;19.024;2023-05-02T07:30:01;100261.94;;;30.21;23.51
58775;BME280;44545;47.480;19.024;2023-05-02T07:33:04;100250.25;;;31.40;21.83
58775;BME280;44545;47.480;19.024;2023-05-02T07:36:06;100259.91;;;31.19;21.98
58775;BME280;44545;47.480;19.024;2023-05-02T07:39:09;100257.09;;;32.52;20.49
58775;BME280;44545;47.480;19.024;2023-05-02T07:42:12;100263.25;;;32.55;20.82
58775;BME280;44545;47.480;19.024;2023-05-02T07:45:14;100257.19;;;31.73;21.98
58775;BME280;44545;47.480;19.024;2023-05-02T07:48:17;100266.78;;;32.32;21.48
58775;BME280;44545;47.480;19.024;2023-05-02T07:51:19;100261.03;;;31.93;20.64
58775;BME280;44545;47.480;19.024;2023-05-02T07:54:22;100266.03;;;30.66;22.76
58775;BME280;44545;47.480;19.024;2023-05-02T07:57:28;100270.44;;;32.06;21.22
58775;BME280;44545;47.480;19.024;2023-05-02T08:00:31;100267.19;;;31.70;21.63
58775;BME280;44545;47.480;19.024;2023-05-02T08:03:33;100258.63;;;31.84;21.07
58775;BME280;44545;47.480;19.024;2023-05-02T08:06:36;100258.97;;;32.50;21.61
58775;BME280;44545;47.480;19.024;2023-05-02T08:09:39;100253.44;;;32.28;21.32
58775;BME280;44545;47.480;19.024;2023-05-02T08:12:41;100257.78;;;33.69;20.22
58775;BME280;44545;47.480;19.024;2023-05-02T08:15:44;100256.56;;;33.76;19.45
58775;BME280;44545;47.480;19.024;2023-05-02T08:18:47;100261.75;;;32.70;21.00
58775;BME280;44545;47.480;19.024;2023-05-02T08:21:49;100269.47;;;33.69;20.04
58775;BME280;44545;47.480;19.024;2023-05-02T08:24:51;100270.34;;;32.09;21.20
58775;BME280;44545;47.480;19.024;2023-05-02T08:27:54;100275.44;;;29.15;25.32
58775;BME280;44545;47.480;19.024;2023-05-02T08:30:56;100279.28;;;29.77;23.99
58775;BME280;44545;47.480;19.024;2023-05-02T08:33:59;100268.59;;;32.32;22.33
58775;BME280;44545;47.480;19.024;2023-05-02T08:37:07;100259.34;;;31.89;21.64
58775;BME280;44545;47.480;19.024;2023-05-02T08:40:10;100269.53;;;28.13;25.87
58775;BME280;44545;47.480;19.024;2023-05-02T08:43:15;100258.94;;;29.31;25.08
58775;BME280;44545;47.480;19.024;2023-05-02T08:46:21;100259.22;;;29.54;24.11
58775;BME280;44545;47.480;19.024;2023-05-02T08:49:25;100254.69;;;30.25;23.33
58775;BME280;44545;47.480;19.024;2023-05-02T08:52:29;100259.09;;;29.60;24.73
58775;BME280;44545;47.480;19.024;2023-05-02T08:55:35;100251.19;;;28.80;25.60
58775;BME280;44545;47.480;19.024;2023-05-02T08:58:40;100252.47;;;30.08;24.02
58775;BME280;44545;47.480;19.024;2023-05-02T09:01:43;100254.66;;;31.95;21.81
58775;BME280;44545;47.480;19.024;2023-05-02T09:04:53;100247.84;;;31.30;22.77
58775;BME280;44545;47.480;19.024;2023-05-02T09:07:56;100237.69;;;32.41;21.27
58775;BME280;44545;47.480;19.024;2023-05-02T09:11:00;100244.37;;;33.23;20.30
58775;BME280;44545;47.480;19.024;2023-05-02T09:14:13;100236.78;;;31.91;21.30
58775;BME280;44545;47.480;19.024;2023-05-02T09:17:16;100228.84;;;32.60;20.90
58775;BME280;44545;47.480;19.024;2023-05-02T09:20:18;100234.09;;;30.24;23.65
58775;BME280;44545;47.480;19.024;2023-05-02T09:23:31;100233.31;;;33.07;20.98
58775;BME280;44545;47.480;19.024;2023-05-02T09:26:33;100231.56;;;33.49;19.58
58775;BME280;44545;47.480;19.024;2023-05-02T09:29:36;100230.25;;;34.60;18.81
58775;BME280;44545;47.480;19.024;2023-05-02T09:32:46;100227.47;;;34.01;18.88
58775;BME280;44545;47.480;19.024;2023-05-02T09:35:53;100240.63;;;32.58;19.92
58775;BME280;44545;47.480;19.024;2023-05-02T09:39:08;100235.81;;;33.76;19.16
58775;BME280;44545;47.480;19.024;2023-05-02T09:42:11;100237.84;;;33.49;19.24
58775;BME280;44545;47.480;19.024;2023-05-02T09:45:23;100236.22;;;34.85;18.28
58775;BME280;44545;47.480;19.024;2023-05-02T09:48:28;100226.78;;;36.66;16.79
58775;BME280;44545;47.480;19.024;2023-05-02T09:51:30;100223.66;;;36.25;17.37
58775;BME280;44545;47.480;19.024;2023-05-02T09:54:34;100214.84;;;36.53;17.60
58775;BME280;44545;47.480;19.024;2023-05-02T09:57:39;100218.03;;;36.28;16.77
58775;BME280;44545;47.480;19.024;2023-05-02T10:00:43;100220.69;;;33.50;19.59
58775;BME280;44545;47.480;19.024;2023-05-02T10:03:47;100207.72;;;35.49;17.95
58775;BME280;44545;47.480;19.024;2023-05-02T10:06:52;100207.06;;;35.27;17.28
58775;BME280;44545;47.480;19.024;2023-05-02T10:09:54;100219.91;;;33.89;18.94
58775;BME280;44545;47.480;19.024;2023-05-02T10:13:00;100233.91;;;33.58;19.27
58775;BME280;44545;47.480;19.024;2023-05-02T10:16:05;100222.44;;;33.09;19.23
58775;BME280;44545;47.480;19.024;2023-05-02T10:19:09;100223.84;;;35.87;17.33
58775;BME280;44545;47.480;19.024;2023-05-02T10:22:12;100214.50;;;36.91;16.33
58775;BME280;44545;47.480;19.024;2023-05-02T10:25:15;100208.41;;;36.38;16.13
58775;BME280;44545;47.480;19.024;2023-05-02T10:28:18;100204.62;;;36.90;15.87
58775;BME280;44545;47.480;19.024;2023-05-02T10:31:21;100207.03;;;38.73;14.58
58775;BME280;44545;47.480;19.024;2023-05-02T10:34:24;100208.69;;;38.61;15.65
58775;BME280;44545;47.480;19.024;2023-05-02T10:37:28;100198.91;;;38.86;14.87
58775;BME280;44545;47.480;19.024;2023-05-02T10:40:31;100217.84;;;37.12;16.24
58775;BME280;44545;47.480;19.024;2023-05-02T10:43:34;100222.63;;;34.87;17.86
58775;BME280;44545;47.480;19.024;2023-05-02T10:46:39;100209.28;;;36.23;16.56
58775;BME280;44545;47.480;19.024;2023-05-02T10:52:53;100199.28;;;38.52;15.02
58775;BME280;44545;47.480;19.024;2023-05-02T10:56:16;100203.50;;;37.70;15.26
58775;BME280;44545;47.480;19.024;2023-05-02T10:59:40;100204.72;;;34.45;19.73
58775;BME280;44545;47.480;19.024;2023-05-02T11:06:04;100194.19;;;33.38;19.35
58775;BME280;44545;47.480;19.024;2023-05-02T11:12:48;100179.63;;;36.83;16.88
58775;BME280;44545;47.480;19.024;2023-05-02T11:15:53;100172.59;;;33.98;19.56
58775;BME280;44545;47.480;19.024;2023-05-02T11:18:57;100178.31;;;33.51;20.36
58775;BME280;44545;47.480;19.024;2023-05-02T11:25:34;100174.12;;;33.84;20.87
58775;BME280;44545;47.480;19.024;2023-05-02T11:31:52;100169.25;;;30.91;23.51
58775;BME280;44545;47.480;19.024;2023-05-02T11:34:55;100179.16;;;29.69;24.89
58775;BME280;44545;47.480;19.024;2023-05-02T11:38:03;100168.59;;;28.10;28.75
58775;BME280;44545;47.480;19.024;2023-05-02T11:41:05;100173.56;;;28.30;26.97
58775;BME280;44545;47.480;19.024;2023-05-02T11:44:08;100177.91;;;27.92;28.27
58775;BME280;44545;47.480;19.024;2023-05-02T11:47:11;100170.44;;;28.08;27.10
58775;BME280;44545;47.480;19.024;2023-05-02T11:50:14;100176.25;;;27.37;27.92
58775;BME280;44545;47.480;19.024;2023-05-02T11:53:24;100162.37;;;26.57;28.89
58775;BME280;44545;47.480;19.024;2023-05-02T11:56:27;100167.28;;;26.85;28.67
58775;BME280;44545;47.480;19.024;2023-05-02T11:59:29;100156.53;;;26.88;28.33
58775;BME280;44545;47.480;19.024;2023-05-02T12:05:37;100149.84;;;28.10;27.33
58775;BME280;44545;47.480;19.024;2023-05-02T12:08:41;100150.25;;;27.43;27.56
58775;BME280;44545;47.480;19.024;2023-05-02T12:11:44;100149.66;;;26.07;28.18
58775;BME280;44545;47.480;19.024;2023-05-02T12:14:46;100156.09;;;25.92;28.65
58775;BME280;44545;47.480;19.024;2023-05-02T12:17:49;100152.53;;;25.93;28.56
58775;BME280;44545;47.480;19.024;2023-05-02T12:20:54;100149.22;;;25.66;29.69
58775;BME280;44545;47.480;19.024;2023-05-02T12:23:57;100134.41;;;26.78;27.39
58775;BME280;44545;47.480;19.024;2023-05-02T12:27:13;100145.50;;;27.08;27.06
58775;BME280;44545;47.480;19.024;2023-05-02T12:30:25;100140.00;;;25.95;27.48
58775;BME280;44545;47.480;19.024;2023-05-02T12:33:27;100138.94;;;26.11;28.05
58775;BME280;44545;47.480;19.024;2023-05-02T12:36:30;100140.62;;;26.15;28.01
58775;BME280;44545;47.480;19.024;2023-05-02T12:39:38;100140.44;;;26.31;27.58
58775;BME280;44545;47.480;19.024;2023-05-02T12:42:41;100137.50;;;26.49;28.09
58775;BME280;44545;47.480;19.024;2023-05-02T12:45:44;100133.19;;;26.96;27.42
58775;BME280;44545;47.480;19.024;2023-05-02T12:49:08;100136.59;;;26.50;32.02
58775;BME280;44545;47.480;19.024;2023-05-02T12:52:13;100142.84;;;25.81;28.50
58775;BME280;44545;47.480;19.024;2023-05-02T12:55:20;100143.59;;;25.94;28.83
58775;BME280;44545;47.480;19.024;2023-05-02T12:58:23;100143.62;;;25.00;29.48
58775;BME280;44545;47.480;19.024;2023-05-02T13:01:27;100137.12;;;25.32;28.90
58775;BME280;44545;47.480;19.024;2023-05-02T13:04:37;100137.47;;;24.93;29.59
58775;BME280;44545;47.480;19.024;2023-05-02T13:07:41;100136.44;;;25.09;29.81
58775;BME280;44545;47.480;19.024;2023-05-02T13:10:43;100137.31;;;25.08;30.09
58775;BME280;44545;47.480;19.024;2023-05-02T13:13:46;100137.53;;;24.85;30.92
58775;BME280;44545;47.480;19.024;2023-05-02T13:16:48;100129.81;;;24.44;30.84
58775;BME280;44545;47.480;19.024;2023-05-02T13:19:51;100118.41;;;24.13;31.49
58775;BME280;44545;47.480;19.024;2023-05-02T13:23:02;100123.75;;;24.14;31.68
58775;BME280;44545;47.480;19.024;2023-05-02T13:26:05;100125.66;;;23.91;32.17
58775;BME280;44545;47.480;19.024;2023-05-02T13:29:07;100123.78;;;24.07;32.45
58775;BME280;44545;47.480;19.024;2023-05-02T13:32:12;100120.34;;;23.82;31.82
58775;BME280;44545;47.480;19.024;2023-05-02T13:35:15;100118.44;;;24.10;31.19
58775;BME280;44545;47.480;19.024;2023-05-02T13:38:17;100117.34;;;24.52;31.01
58775;BME280;44545;47.480;19.024;2023-05-02T13:41:19;100120.84;;;24.57;31.34
58775;BME280;44545;47.480;19.024;2023-05-02T13:44:22;100115.41;;;24.73;30.70
58775;BME280;44545;47.480;19.024;2023-05-02T13:47:25;100122.59;;;24.60;30.11
58775;BME280;44545;47.480;19.024;2023-05-02T13:50:28;100109.41;;;24.37;30.40
58775;BME280;44545;47.480;19.024;2023-05-02T13:53:30;100114.87;;;24.14;31.19
58775;BME280;44545;47.480;19.024;2023-05-02T13:56:32;100120.25;;;24.00;31.39
58775;BME280;44545;47.480;19.024;2023-05-02T13:59:34;100118.41;;;24.19;31.84
58775;BME280;44545;47.480;19.024;2023-05-02T14:02:37;100123.62;;;24.34;30.12
58775;BME280;44545;47.480;19.024;2023-05-02T14:05:40;100116.56;;;24.33;30.07
58775;BME280;44545;47.480;19.024;2023-05-02T14:08:44;100123.62;;;24.37;29.85
58775;BME280;44545;47.480;19.024;2023-05-02T14:11:47;100122.66;;;24.54;30.29
58775;BME280;44545;47.480;19.024;2023-05-02T14:14:50;100114.69;;;24.48;30.12
58775;BME280;44545;47.480;19.024;2023-05-02T14:17:52;100113.97;;;24.21;30.56
58775;BME280;44545;47.480;19.024;2023-05-02T14:20:55;100112.13;;;24.28;30.28
58775;BME280;44545;47.480;19.024;2023-05-02T14:24:01;100113.81;;;24.42;29.73
58775;BME280;44545;47.480;19.024;2023-05-02T14:27:03;100115.63;;;24.33;30.86
58775;BME280;44545;47.480;19.024;2023-05-02T14:30:06;100114.75;;;24.35;30.21
58775;BME280;44545;47.480;19.024;2023-05-02T14:33:09;100115.75;;;24.19;30.86
58775;BME280;44545;47.480;19.024;2023-05-02T14:36:11;100112.13;;;24.23;30.72
58775;BME280;44545;47.480;19.024;2023-05-02T14:39:13;100107.75;;;24.14;31.50
58775;BME280;44545;47.480;19.024;2023-05-02T14:42:16;100114.16;;;23.64;32.41
58775;BME280;44545;47.480;19.024;2023-05-02T14:45:18;100120.38;;;23.57;32.02
58775;BME280;44545;47.480;19.024;2023-05-02T14:48:21;100117.69;;;23.69;31.92
58775;BME280;44545;47.480;19.024;2023-05-02T14:51:23;100115.09;;;23.52;34.95
58775;BME280;44545;47.480;19.024;2023-05-02T14:54:27;100119.56;;;23.29;33.35
58775;BME280;44545;47.480;19.024;2023-05-02T14:57:30;100125.78;;;23.40;33.45
58775;BME280;44545;47.480;19.024;2023-05-02T15:00:34;100129.31;;;23.36;33.04
58775;BME280;44545;47.480;19.024;2023-05-02T15:03:39;100124.03;;;23.25;32.58
58775;BME280;44545;47.480;19.024;2023-05-02T15:07:02;100120.50;;;23.17;32.00
58775;BME280;44545;47.480;19.024;2023-05-02T15:10:05;100124.03;;;23.08;32.28
58775;BME280;44545;47.480;19.024;2023-05-02T15:13:08;100130.25;;;23.00;32.18
58775;BME280;44545;47.480;19.024;2023-05-02T15:16:10;100138.22;;;22.87;33.14
58775;BME280;44545;47.480;19.024;2023-05-02T15:19:13;100124.03;;;22.56;34.77
58775;BME280;44545;47.480;19.024;2023-05-02T15:22:15;100128.44;;;22.57;34.96
58775;BME280;44545;47.480;19.024;2023-05-02T15:25:19;100121.34;;;22.78;33.71
